Time;durP1;ratioP1;P1;durP2;ratioP2;P2;SDS_P1;SDS_P2;PMS_P1;PMS_P2;Temp;Humidity;BMP_temperature;BMP_pressure;BME280_temperature;BME280_humidity;BME280_pressure;Samples;Min_cycle;Max_cycle;Signal;HPM_P1;HPM_P2
2021/06/18 00:01:38;;;;;;;75.63;21.95;;;;;;;;;;5039878;28;20052;-72
2021/06/18 00:04:09;;;;;;;89.13;20.92;;;;;;;;;;5032243;28;20026;-71
2021/06/18 00:06:35;;;;;;;73.25;20.92;;;;;;;;;;5035648;28;20037;-73
2021/06/18 00:09:01;;;;;;;77.30;20.52;;;;;;;;;;5038757;28;20037;-70
2021/06/18 00:11:29;;;;;;;64.95;19.90;;;;;;;;;;5021659;28;20400;-72
2021/06/18 00:13:54;;;;;;;63.50;16.13;;;;;;;;;;5041950;28;20079;-72
2021/06/18 00:16:20;;;;;;;46.22;17.92;;;;;;;;;;5030329;28;20040;-73
2021/06/18 00:18:46;;;;;;;67.03;19.70;;;;;;;;;;5026885;28;20029;-72
2021/06/18 00:21:11;;;;;;;52.78;18.30;;;;;;;;;;5047204;28;20048;-75
2021/06/18 00:23:37;;;;;;;57.70;15.88;;;;;;;;;;5045002;28;20134;-77
2021/06/18 00:26:03;;;;;;;60.67;17.33;;;;;;;;;;5021863;28;20041;-72
2021/06/18 00:28:28;;;;;;;57.42;19.00;;;;;;;;;;5026801;28;20025;-76
2021/06/18 00:31:08;;;;;;;60.85;16.67;;;;;;;;;;5019689;28;20087;-75
2021/06/18 00:33:34;;;;;;;64.20;18.20;;;;;;;;;;5031789;28;20589;-62
2021/06/18 00:35:59;;;;;;;65.93;18.38;;;;;;;;;;5038892;28;20132;-66
2021/06/18 00:38:25;;;;;;;68.50;19.58;;;;;;;;;;5043034;28;20037;-70
2021/06/18 00:40:50;;;;;;;75.45;20.88;;;;;;;;;;5038162;28;20424;-69
2021/06/18 00:43:19;;;;;;;69.22;19.48;;;;;;;;;;5031283;28;20037;-74
2021/06/18 00:45:44;;;;;;;66.43;19.10;;;;;;;;;;5021809;28;20064;-71
2021/06/18 00:48:11;;;;;;;57.28;19.23;;;;;;;;;;5032060;28;20452;-64
2021/06/18 00:50:37;;;;;;;75.18;20.67;;;;;;;;;;5041391;28;20468;-65
2021/06/18 00:53:03;;;;;;;60.78;22.00;;;;;;;;;;5039696;28;20030;-69
2021/06/18 00:55:30;;;;;;;74.32;20.33;;;;;;;;;;5039226;28;20052;-71
2021/06/18 00:57:56;;;;;;;76.10;22.20;;;;;;;;;;5035002;28;20124;-70
2021/06/18 01:00:22;;;;;;;74.80;25.30;;;;;;;;;;5031177;28;20501;-70
2021/06/18 01:02:47;;;;;;;65.03;24.52;;;;;;;;;;5038599;28;20142;-71
2021/06/18 01:05:14;;;;;;;92.00;23.83;;;;;;;;;;5038682;28;20543;-69
2021/06/18 01:07:52;;;;;;;81.50;24.63;;;;;;;;;;5030156;28;20045;-68
2021/06/18 01:10:38;;;;;;;81.30;27.13;;;;;;;;;;5017805;28;20417;-69
2021/06/18 01:13:13;;;;;;;71.20;27.17;;;;;;;;;;5044484;28;20481;-72
2021/06/18 01:15:46;;;;;;;108.18;29.05;;;;;;;;;;5032580;28;20045;-77
2021/06/18 01:18:15;;;;;;;80.13;27.98;;;;;;;;;;5010242;28;20105;-74
2021/06/18 01:20:48;;;;;;;78.85;24.08;;;;;;;;;;5018895;28;20055;-73
2021/06/18 01:23:21;;;;;;;91.03;23.98;;;;;;;;;;5036547;28;20075;-71
2021/06/18 01:25:51;;;;;;;98.63;24.70;;;;;;;;;;5022034;28;20029;-69
2021/06/18 01:28:25;;;;;;;81.25;23.13;;;;;;;;;;5029682;28;20123;-69
2021/06/18 01:30:51;;;;;;;68.90;21.63;;;;;;;;;;5010315;28;20051;-70
2021/06/18 01:33:19;;;;;;;76.85;21.80;;;;;;;;;;5005366;28;20070;-68
2021/06/18 01:35:50;;;;;;;61.65;18.33;;;;;;;;;;5051733;28;20041;-69
2021/06/18 01:38:17;;;;;;;58.53;17.13;;;;;;;;;;4995617;28;20136;-68
2021/06/18 01:40:44;;;;;;;58.13;18.27;;;;;;;;;;5010126;28;20060;-68
2021/06/18 01:43:12;;;;;;;48.03;16.60;;;;;;;;;;5021168;28;20039;-68
2021/06/18 01:45:40;;;;;;;49.05;15.52;;;;;;;;;;5038219;28;20041;-67
2021/06/18 01:48:06;;;;;;;65.25;17.58;;;;;;;;;;5036470;28;20120;-71
2021/06/18 01:50:32;;;;;;;55.13;17.83;;;;;;;;;;5039454;28;20060;-68
2021/06/18 01:53:05;;;;;;;48.63;17.00;;;;;;;;;;5014290;28;20033;-72
2021/06/18 01:55:32;;;;;;;67.10;17.40;;;;;;;;;;5037439;28;20129;-70
2021/06/18 01:57:59;;;;;;;62.85;16.80;;;;;;;;;;5021311;28;20052;-71
2021/06/18 02:00:25;;;;;;;65.10;17.67;;;;;;;;;;5018025;28;20044;-71
2021/06/18 02:02:51;;;;;;;63.80;17.65;;;;;;;;;;5012500;28;20523;-70
2021/06/18 02:05:18;;;;;;;63.78;17.85;;;;;;;;;;5011432;28;20033;-70
2021/06/18 02:07:45;;;;;;;63.63;17.25;;;;;;;;;;5022121;28;20456;-68
2021/06/18 02:10:11;;;;;;;58.30;16.65;;;;;;;;;;5046356;28;20123;-71
2021/06/18 02:12:37;;;;;;;67.45;17.35;;;;;;;;;;4995669;28;20037;-70
2021/06/18 02:15:05;;;;;;;61.40;17.73;;;;;;;;;;5028156;28;20516;-71
2021/06/18 02:17:31;;;;;;;54.20;17.40;;;;;;;;;;5008898;28;20045;-74
2021/06/18 02:19:57;;;;;;;62.33;19.20;;;;;;;;;;5027442;28;20037;-77
2021/06/18 02:22:24;;;;;;;61.92;17.80;;;;;;;;;;5027738;28;20048;-77
2021/06/18 02:24:51;;;;;;;65.03;19.40;;;;;;;;;;5026379;28;20401;-75
2021/06/18 02:27:17;;;;;;;61.60;17.27;;;;;;;;;;5027812;28;20453;-77
2021/06/18 02:29:43;;;;;;;60.28;17.52;;;;;;;;;;5044381;28;20095;-78
2021/06/18 02:32:11;;;;;;;60.25;19.33;;;;;;;;;;5026858;28;20053;-78
2021/06/18 02:34:38;;;;;;;63.67;18.02;;;;;;;;;;5024831;28;20025;-73
2021/06/18 02:37:04;;;;;;;55.70;17.63;;;;;;;;;;5034502;28;20060;-72
2021/06/18 02:39:32;;;;;;;67.72;18.27;;;;;;;;;;5026655;28;20037;-73
2021/06/18 02:41:58;;;;;;;69.57;18.02;;;;;;;;;;5024852;28;20032;-72
2021/06/18 02:44:24;;;;;;;60.05;19.92;;;;;;;;;;5043595;28;20033;-73
2021/06/18 02:47:04;;;;;;;69.45;18.70;;;;;;;;;;5010280;28;20174;-73
2021/06/18 02:49:52;;;;;;;62.78;19.35;;;;;;;;;;5042456;28;20144;-72
2021/06/18 02:52:21;;;;;;;65.13;19.42;;;;;;;;;;5044428;28;20153;-68
2021/06/18 02:55:01;;;;;;;56.58;19.10;;;;;;;;;;5024169;28;20056;-66
2021/06/18 02:57:29;;;;;;;55.25;19.75;;;;;;;;;;5026456;28;20440;-69
2021/06/18 02:59:59;;;;;;;61.45;18.95;;;;;;;;;;5043585;28;20192;-67
2021/06/18 03:02:35;;;;;;;64.18;19.27;;;;;;;;;;5026134;28;20078;-67
2021/06/18 03:05:02;;;;;;;74.45;19.25;;;;;;;;;;5025535;28;20411;-67
2021/06/18 03:07:29;;;;;;;69.60;20.05;;;;;;;;;;5043689;28;20405;-65
2021/06/18 03:09:58;;;;;;;69.28;21.25;;;;;;;;;;5044142;28;20037;-68
2021/06/18 03:12:25;;;;;;;71.07;19.58;;;;;;;;;;5044584;28;20055;-66
2021/06/18 03:14:51;;;;;;;55.90;19.77;;;;;;;;;;5044626;28;20143;-66
2021/06/18 03:17:18;;;;;;;66.38;19.08;;;;;;;;;;5042443;28;20033;-66
2021/06/18 03:19:48;;;;;;;54.60;18.25;;;;;;;;;;5018155;28;20064;-66
2021/06/18 03:22:15;;;;;;;49.97;18.73;;;;;;;;;;5043870;28;20116;-66
2021/06/18 03:24:42;;;;;;;75.32;19.13;;;;;;;;;;5027885;28;20045;-65
2021/06/18 03:27:09;;;;;;;60.05;18.10;;;;;;;;;;5026158;28;20029;-66
2021/06/18 03:29:35;;;;;;;59.88;18.15;;;;;;;;;;5043640;28;20542;-69
2021/06/18 03:32:01;;;;;;;59.05;18.15;;;;;;;;;;5014100;28;20098;-75
2021/06/18 03:34:28;;;;;;;32.90;12.60;;;;;;;;;;5031575;28;20104;-77
2021/06/18 03:36:55;;;;;;;50.10;13.68;;;;;;;;;;5046468;28;20036;-77
2021/06/18 03:39:21;;;;;;;36.90;11.90;;;;;;;;;;5026753;28;20806;-78
2021/06/18 03:41:47;;;;;;;41.53;12.30;;;;;;;;;;5027697;28;20033;-71
2021/06/18 03:44:14;;;;;;;43.28;12.07;;;;;;;;;;5027271;28;20041;-77
2021/06/18 03:46:40;;;;;;;49.15;13.80;;;;;;;;;;5044192;28;20032;-78
2021/06/18 03:49:07;;;;;;;52.78;12.38;;;;;;;;;;5044186;28;20037;-77
2021/06/18 03:51:34;;;;;;;42.83;10.45;;;;;;;;;;5041281;28;20442;-77
2021/06/18 03:54:00;;;;;;;35.88;10.27;;;;;;;;;;5033188;28;20060;-75
2021/06/18 03:56:25;;;;;;;27.08;9.00;;;;;;;;;;5042888;28;20045;-77
2021/06/18 03:58:52;;;;;;;38.15;7.95;;;;;;;;;;5041222;28;20441;-68
2021/06/18 04:01:18;;;;;;;32.05;7.13;;;;;;;;;;5047467;28;20398;-77
2021/06/18 04:03:47;;;;;;;42.35;8.05;;;;;;;;;;5042265;28;20214;-77
2021/06/18 04:06:13;;;;;;;49.63;9.45;;;;;;;;;;5006187;28;20029;-80
2021/06/18 04:08:38;;;;;;;49.92;9.35;;;;;;;;;;5007676;28;20330;-79
2021/06/18 04:11:05;;;;;;;59.53;9.82;;;;;;;;;;5044326;28;20040;-75
2021/06/18 04:13:31;;;;;;;53.50;9.50;;;;;;;;;;5043305;28;20044;-79
2021/06/18 04:15:57;;;;;;;54.58;10.18;;;;;;;;;;5039826;28;20099;-73
2021/06/18 04:18:24;;;;;;;49.60;9.70;;;;;;;;;;5007816;28;20213;-81
2021/06/18 04:20:50;;;;;;;51.25;9.73;;;;;;;;;;5032779;28;20052;-66
2021/06/18 04:23:16;;;;;;;61.85;10.05;;;;;;;;;;5034891;28;20040;-70
2021/06/18 04:25:42;;;;;;;50.97;8.13;;;;;;;;;;5027253;28;20043;-69
2021/06/18 04:28:08;;;;;;;26.95;6.00;;;;;;;;;;5028545;28;20029;-70
2021/06/18 04:30:34;;;;;;;24.95;6.38;;;;;;;;;;5027096;28;20029;-70
2021/06/18 04:32:59;;;;;;;41.60;5.85;;;;;;;;;;5025443;28;20060;-75
2021/06/18 04:35:25;;;;;;;35.35;5.70;;;;;;;;;;5010178;28;20040;-74
2021/06/18 04:37:50;;;;;;;30.58;4.22;;;;;;;;;;5046871;28;20033;-73
2021/06/18 04:40:16;;;;;;;35.72;4.95;;;;;;;;;;4996778;28;20041;-75
2021/06/18 04:42:42;;;;;;;23.67;5.13;;;;;;;;;;5028308;28;20033;-71
2021/06/18 04:45:08;;;;;;;36.67;7.05;;;;;;;;;;5012814;28;20554;-73
2021/06/18 04:47:34;;;;;;;39.70;5.88;;;;;;;;;;5019554;28;20041;-69
2021/06/18 04:50:00;;;;;;;26.98;4.72;;;;;;;;;;4995519;28;20321;-72
2021/06/18 04:52:26;;;;;;;35.95;5.18;;;;;;;;;;5003276;28;20073;-67
2021/06/18 04:54:57;;;;;;;39.75;5.55;;;;;;;;;;5004516;28;20069;-67
2021/06/18 04:57:23;;;;;;;40.22;5.13;;;;;;;;;;5005535;28;20538;-68
2021/06/18 04:59:49;;;;;;;20.75;4.57;;;;;;;;;;5005676;28;20042;-67
2021/06/18 05:02:14;;;;;;;25.00;4.55;;;;;;;;;;5004991;28;20065;-70
2021/06/18 05:04:40;;;;;;;25.77;5.10;;;;;;;;;;5005757;28;20392;-71
2021/06/18 05:07:06;;;;;;;31.42;5.57;;;;;;;;;;4989497;28;20034;-72
2021/06/18 05:09:31;;;;;;;29.83;5.40;;;;;;;;;;5004717;28;20243;-72
2021/06/18 05:11:57;;;;;;;36.38;6.25;;;;;;;;;;5004974;28;20501;-72
2021/06/18 05:14:22;;;;;;;18.40;5.28;;;;;;;;;;4989116;28;20045;-69
2021/06/18 05:16:48;;;;;;;27.33;5.60;;;;;;;;;;5005611;28;20045;-70
2021/06/18 05:19:14;;;;;;;20.88;6.13;;;;;;;;;;5005513;28;20040;-73
2021/06/18 05:21:39;;;;;;;34.72;6.28;;;;;;;;;;5005705;28;20069;-69
2021/06/18 05:24:06;;;;;;;26.33;6.05;;;;;;;;;;5005782;28;20069;-70
2021/06/18 05:26:32;;;;;;;30.65;5.95;;;;;;;;;;5005832;28;20475;-68
2021/06/18 05:29:01;;;;;;;39.63;7.20;;;;;;;;;;5006934;28;20427;-70
2021/06/18 05:31:27;;;;;;;42.03;6.85;;;;;;;;;;5005877;28;20521;-74
2021/06/18 05:33:53;;;;;;;36.92;7.45;;;;;;;;;;5007273;28;20046;-73
2021/06/18 05:36:18;;;;;;;31.52;5.97;;;;;;;;;;5002716;28;20176;-72
2021/06/18 05:38:45;;;;;;;27.63;5.80;;;;;;;;;;5003785;28;20560;-74
2021/06/18 05:41:11;;;;;;;31.25;6.20;;;;;;;;;;5006355;28;20045;-72
2021/06/18 05:43:36;;;;;;;18.27;5.70;;;;;;;;;;4990256;28;20033;-69
2021/06/18 05:46:02;;;;;;;28.52;5.97;;;;;;;;;;5004699;28;20052;-80
2021/06/18 05:48:28;;;;;;;24.65;5.18;;;;;;;;;;5021530;28;20143;-76
2021/06/18 05:50:53;;;;;;;31.73;5.45;;;;;;;;;;4988457;28;20054;-77
2021/06/18 05:53:20;;;;;;;19.98;4.85;;;;;;;;;;5002373;28;20136;-75
2021/06/18 05:55:46;;;;;;;24.63;5.40;;;;;;;;;;5006492;28;20181;-84
2021/06/18 05:58:12;;;;;;;37.40;5.43;;;;;;;;;;5007142;28;20057;-85
2021/06/18 06:00:37;;;;;;;38.60;5.70;;;;;;;;;;5010233;28;20042;-85
2021/06/18 06:03:03;;;;;;;22.50;5.07;;;;;;;;;;4989447;28;20133;-84
2021/06/18 06:05:29;;;;;;;24.52;4.90;;;;;;;;;;5003329;28;20049;-86
2021/06/18 06:07:55;;;;;;;17.10;4.38;;;;;;;;;;5000755;28;20037;-71
2021/06/18 06:10:22;;;;;;;21.02;3.85;;;;;;;;;;4986913;28;20037;-69
2021/06/18 06:12:48;;;;;;;16.95;4.00;;;;;;;;;;4997183;28;20038;-72
2021/06/18 06:15:14;;;;;;;34.08;5.72;;;;;;;;;;5011338;28;20890;-72
2021/06/18 06:17:40;;;;;;;17.30;4.07;;;;;;;;;;4995430;28;20034;-72
2021/06/18 06:20:06;;;;;;;18.52;3.47;;;;;;;;;;4977121;28;20048;-74
2021/06/18 06:22:32;;;;;;;30.20;4.55;;;;;;;;;;5001044;28;20042;-72
2021/06/18 06:24:59;;;;;;;24.58;3.15;;;;;;;;;;4997814;28;20038;-70
2021/06/18 06:27:24;;;;;;;24.70;3.08;;;;;;;;;;5000439;28;20517;-66
2021/06/18 06:29:50;;;;;;;14.20;2.38;;;;;;;;;;4996232;28;20038;-70
2021/06/18 06:32:16;;;;;;;12.82;1.88;;;;;;;;;;4999541;28;20045;-67
2021/06/18 06:34:41;;;;;;;14.65;2.50;;;;;;;;;;4996825;28;20124;-72
2021/06/18 06:37:07;;;;;;;8.50;2.92;;;;;;;;;;4998916;28;20042;-69
2021/06/18 06:39:33;;;;;;;9.10;2.17;;;;;;;;;;4997526;28;20046;-69
2021/06/18 06:42:01;;;;;;;14.30;3.22;;;;;;;;;;5001081;28;20026;-72
2021/06/18 06:44:27;;;;;;;6.72;2.30;;;;;;;;;;4997144;28;20111;-72
2021/06/18 06:46:53;;;;;;;9.13;2.47;;;;;;;;;;4993577;28;20064;-70
2021/06/18 06:49:19;;;;;;;13.32;2.60;;;;;;;;;;4998527;28;20038;-70
2021/06/18 06:51:44;;;;;;;6.97;2.10;;;;;;;;;;5017037;28;20037;-70
2021/06/18 06:54:10;;;;;;;14.32;2.33;;;;;;;;;;5030086;28;20048;-70
2021/06/18 06:56:36;;;;;;;8.60;2.30;;;;;;;;;;5034802;28;20117;-70
2021/06/18 06:59:01;;;;;;;14.77;3.03;;;;;;;;;;5033391;28;20049;-70
2021/06/18 07:01:27;;;;;;;13.75;3.28;;;;;;;;;;5015540;28;20041;-68
2021/06/18 07:03:53;;;;;;;9.07;2.83;;;;;;;;;;5033612;28;20041;-71
2021/06/18 07:06:19;;;;;;;20.30;3.40;;;;;;;;;;5020136;28;20433;-70
2021/06/18 07:08:44;;;;;;;10.82;2.80;;;;;;;;;;5001640;28;20037;-68
2021/06/18 07:11:11;;;;;;;12.07;2.80;;;;;;;;;;5014535;28;20140;-78
2021/06/18 07:13:37;;;;;;;15.77;2.92;;;;;;;;;;5039500;28;20194;-74
2021/06/18 07:16:03;;;;;;;13.75;2.47;;;;;;;;;;5026927;28;20432;-73
2021/06/18 07:18:28;;;;;;;8.70;2.58;;;;;;;;;;5044045;28;20040;-69
2021/06/18 07:20:54;;;;;;;6.20;2.28;;;;;;;;;;5042654;28;20051;-66
2021/06/18 07:23:20;;;;;;;9.35;1.90;;;;;;;;;;5038449;28;20052;-72
2021/06/18 07:25:46;;;;;;;14.52;2.60;;;;;;;;;;5045104;28;20030;-69
2021/06/18 07:28:11;;;;;;;9.55;2.33;;;;;;;;;;5035302;28;20044;-67
2021/06/18 07:30:37;;;;;;;10.25;1.90;;;;;;;;;;5016308;28;20466;-65
2021/06/18 07:33:09;;;;;;;9.45;1.90;;;;;;;;;;5033661;28;20121;-65
2021/06/18 07:35:42;;;;;;;21.10;2.10;;;;;;;;;;5032698;28;20188;-66
2021/06/18 07:38:10;;;;;;;10.32;1.80;;;;;;;;;;5033619;28;20037;-66
2021/06/18 07:40:36;;;;;;;12.43;1.95;;;;;;;;;;5034281;28;20037;-67
2021/06/18 07:43:02;;;;;;;13.90;1.83;;;;;;;;;;5036180;28;20425;-67
2021/06/18 07:45:28;;;;;;;7.80;1.80;;;;;;;;;;5030830;28;20112;-67
2021/06/18 07:47:53;;;;;;;6.63;1.80;;;;;;;;;;5020981;28;20475;-65
2021/06/18 07:50:20;;;;;;;9.48;2.00;;;;;;;;;;5024503;28;20056;-66
2021/06/18 07:52:46;;;;;;;13.45;2.00;;;;;;;;;;5043875;28;20459;-68
2021/06/18 07:55:17;;;;;;;10.00;2.50;;;;;;;;;;5028473;28;20065;-67
2021/06/18 07:57:43;;;;;;;7.90;2.13;;;;;;;;;;5037384;28;20049;-67
2021/06/18 08:00:09;;;;;;;9.93;2.25;;;;;;;;;;5033570;28;20114;-68
2021/06/18 08:02:37;;;;;;;14.82;2.35;;;;;;;;;;5020569;28;20034;-68
2021/06/18 08:05:04;;;;;;;13.52;2.63;;;;;;;;;;5045231;28;20037;-67
2021/06/18 08:07:29;;;;;;;7.70;1.90;;;;;;;;;;5033194;28;20441;-71
2021/06/18 08:09:55;;;;;;;11.85;2.13;;;;;;;;;;5032285;28;20141;-72
2021/06/18 08:12:21;;;;;;;8.88;2.20;;;;;;;;;;5018189;28;20436;-71
2021/06/18 08:14:48;;;;;;;9.95;2.45;;;;;;;;;;5024406;28;20028;-71
2021/06/18 08:17:14;;;;;;;11.98;2.40;;;;;;;;;;5014726;28;20504;-77
2021/06/18 08:19:40;;;;;;;3.95;2.00;;;;;;;;;;5016085;28;20049;-76
2021/06/18 08:22:09;;;;;;;14.57;2.53;;;;;;;;;;5042813;28;20052;-72
2021/06/18 08:24:35;;;;;;;11.82;2.35;;;;;;;;;;5038489;28;20036;-76
2021/06/18 08:27:02;;;;;;;11.25;2.35;;;;;;;;;;5037786;28;20424;-69
2021/06/18 08:29:31;;;;;;;11.50;2.47;;;;;;;;;;5042458;28;20037;-73
2021/06/18 08:31:57;;;;;;;13.50;2.20;;;;;;;;;;5043139;28;20037;-72
2021/06/18 08:34:22;;;;;;;7.72;2.25;;;;;;;;;;5043053;28;20033;-77
2021/06/18 08:36:48;;;;;;;11.90;2.53;;;;;;;;;;5041064;28;20033;-70
2021/06/18 08:39:14;;;;;;;17.45;3.00;;;;;;;;;;5043086;28;20102;-66
2021/06/18 08:41:40;;;;;;;15.57;2.92;;;;;;;;;;5037407;28;20044;-77
2021/06/18 08:44:06;;;;;;;13.27;2.78;;;;;;;;;;5036883;28;20433;-67
2021/06/18 08:46:32;;;;;;;17.92;2.85;;;;;;;;;;5029550;28;20033;-74
2021/06/18 08:48:57;;;;;;;16.20;3.00;;;;;;;;;;5037751;28;20033;-79
2021/06/18 08:51:24;;;;;;;9.52;2.40;;;;;;;;;;5020213;28;20054;-77
2021/06/18 08:53:50;;;;;;;13.32;2.97;;;;;;;;;;5042684;28;20043;-79
2021/06/18 08:56:16;;;;;;;7.45;2.65;;;;;;;;;;5034177;28;20048;-74
2021/06/18 08:58:42;;;;;;;18.33;2.58;;;;;;;;;;5039594;28;20456;-74
2021/06/18 09:01:08;;;;;;;8.48;2.95;;;;;;;;;;5003753;28;20037;-75
2021/06/18 09:03:35;;;;;;;13.57;2.78;;;;;;;;;;5010193;28;20029;-69
2021/06/18 09:06:01;;;;;;;4.93;2.42;;;;;;;;;;5016957;28;20439;-70
2021/06/18 09:08:26;;;;;;;9.65;2.17;;;;;;;;;;5023743;28;20497;-76
2021/06/18 09:10:52;;;;;;;11.30;2.70;;;;;;;;;;5031057;28;20037;-77
2021/06/18 09:13:19;;;;;;;9.38;2.60;;;;;;;;;;5045391;28;20063;-72
2021/06/18 09:15:53;;;;;;;20.90;2.95;;;;;;;;;;5034453;28;20127;-73
2021/06/18 09:18:21;;;;;;;7.32;2.63;;;;;;;;;;5025551;28;20496;-70
2021/06/18 09:20:50;;;;;;;10.07;2.55;;;;;;;;;;5041987;28;20049;-71
2021/06/18 09:23:23;;;;;;;11.32;2.60;;;;;;;;;;5029534;28;20478;-76
2021/06/18 09:26:09;;;;;;;9.88;2.63;;;;;;;;;;5014915;28;20041;-71
2021/06/18 09:28:55;;;;;;;9.40;2.60;;;;;;;;;;5036656;28;20068;-74
2021/06/18 09:31:22;;;;;;;14.48;3.20;;;;;;;;;;5018247;28;20709;-66
2021/06/18 09:33:50;;;;;;;14.50;3.22;;;;;;;;;;5019569;28;20100;-72
2021/06/18 09:36:16;;;;;;;9.85;2.65;;;;;;;;;;5036973;28;20130;-70
2021/06/18 09:38:47;;;;;;;10.40;2.90;;;;;;;;;;5016513;28;20421;-71
2021/06/18 09:41:33;;;;;;;17.48;2.97;;;;;;;;;;5036527;28;20028;-73
2021/06/18 09:44:11;;;;;;;13.90;2.90;;;;;;;;;;5031849;28;20077;-73
2021/06/18 09:46:39;;;;;;;9.85;3.30;;;;;;;;;;5035199;28;20060;-77
2021/06/18 09:49:05;;;;;;;10.63;3.05;;;;;;;;;;5034282;28;20036;-74
2021/06/18 09:51:31;;;;;;;7.75;2.83;;;;;;;;;;5029981;28;20170;-75
2021/06/18 09:53:57;;;;;;;13.63;3.03;;;;;;;;;;5004487;28;20358;-73
2021/06/18 09:56:22;;;;;;;10.98;2.70;;;;;;;;;;5039562;28;20044;-74
2021/06/18 09:58:49;;;;;;;7.97;2.42;;;;;;;;;;5040890;28;20041;-73
2021/06/18 10:01:24;;;;;;;7.57;2.58;;;;;;;;;;5014734;28;20033;-70
2021/06/18 10:04:01;;;;;;;14.80;2.90;;;;;;;;;;5016947;28;20033;-73
2021/06/18 10:06:28;;;;;;;6.47;2.78;;;;;;;;;;5038607;28;20037;-71
2021/06/18 10:08:53;;;;;;;9.75;2.90;;;;;;;;;;5019742;28;20084;-73
2021/06/18 10:11:19;;;;;;;13.77;2.85;;;;;;;;;;5041636;28;20036;-74
2021/06/18 10:13:45;;;;;;;19.55;3.17;;;;;;;;;;5020441;28;20076;-72
2021/06/18 10:16:16;;;;;;;8.80;2.67;;;;;;;;;;5038271;28;20037;-67
2021/06/18 10:18:42;;;;;;;15.25;3.35;;;;;;;;;;5017260;28;20048;-74
2021/06/18 10:21:08;;;;;;;13.13;3.00;;;;;;;;;;5022715;28;20377;-74
2021/06/18 10:23:34;;;;;;;16.00;6.05;;;;;;;;;;5056964;28;20044;-73
2021/06/18 10:26:02;;;;;;;12.35;2.80;;;;;;;;;;5041786;28;20040;-76
2021/06/18 10:28:30;;;;;;;12.05;2.83;;;;;;;;;;5044507;28;20485;-74
2021/06/18 10:30:57;;;;;;;6.20;2.38;;;;;;;;;;5027048;28;20124;-71
2021/06/18 10:33:25;;;;;;;13.82;3.05;;;;;;;;;;5041542;28;20568;-70
2021/06/18 10:38:37;;;;;;;14.55;3.25;;;;;;;;;;5034961;28;20075;-69
2021/06/18 10:41:17;;;;;;;6.90;3.17;;;;;;;;;;5028919;28;20139;-70
2021/06/18 10:43:45;;;;;;;5.25;2.80;;;;;;;;;;5033076;28;20335;-79
2021/06/18 10:46:30;;;;;;;9.05;2.83;;;;;;;;;;5030262;28;20039;-76
2021/06/18 10:49:01;;;;;;;9.70;2.75;;;;;;;;;;5018823;28;20051;-78
2021/06/18 10:51:30;;;;;;;11.88;2.65;;;;;;;;;;5006730;28;20202;-77
2021/06/18 10:53:56;;;;;;;8.48;2.50;;;;;;;;;;5017035;28;20047;-66
2021/06/18 10:56:22;;;;;;;8.77;2.70;;;;;;;;;;5038369;28;20238;-69
2021/06/18 10:59:09;;;;;;;11.20;3.28;;;;;;;;;;5024134;28;20064;-63
2021/06/18 11:01:35;;;;;;;8.27;2.80;;;;;;;;;;5036607;28;20140;-65
2021/06/18 11:04:01;;;;;;;11.02;3.20;;;;;;;;;;5032362;28;20044;-69
2021/06/18 11:06:41;;;;;;;8.40;2.85;;;;;;;;;;5008796;28;20499;-70
2021/06/18 11:09:07;;;;;;;13.45;2.33;;;;;;;;;;5021546;28;20041;-66
2021/06/18 11:11:32;;;;;;;12.23;2.65;;;;;;;;;;5028086;28;20052;-70
2021/06/18 11:14:05;;;;;;;11.82;3.00;;;;;;;;;;5035244;28;20059;-74
2021/06/18 11:16:49;;;;;;;27.58;2.70;;;;;;;;;;5031219;28;20447;-67
2021/06/18 11:19:25;;;;;;;9.98;2.65;;;;;;;;;;5036906;28;20037;-68
2021/06/18 11:21:51;;;;;;;12.80;2.60;;;;;;;;;;5035629;28;20049;-66
2021/06/18 11:24:40;;;;;;;13.23;3.60;;;;;;;;;;5018230;28;20036;-65
2021/06/18 11:27:25;;;;;;;12.80;2.67;;;;;;;;;;5042577;28;20082;-66
2021/06/18 11:30:09;;;;;;;19.02;2.80;;;;;;;;;;5036641;28;20041;-69
2021/06/18 11:32:42;;;;;;;10.60;2.50;;;;;;;;;;5029521;28;20075;-69
2021/06/18 11:35:26;;;;;;;12.25;3.38;;;;;;;;;;5048634;28;20039;-67
2021/06/18 11:37:52;;;;;;;16.08;3.15;;;;;;;;;;5011877;28;20142;-67
2021/06/18 11:40:22;;;;;;;23.90;3.28;;;;;;;;;;5037691;28;20075;-70
2021/06/18 11:42:49;;;;;;;8.88;2.80;;;;;;;;;;5015914;28;20025;-70
2021/06/18 11:45:15;;;;;;;17.02;2.92;;;;;;;;;;5040146;28;20040;-66
2021/06/18 11:47:42;;;;;;;11.13;2.90;;;;;;;;;;5037672;28;20441;-63
2021/06/18 11:50:08;;;;;;;19.75;3.33;;;;;;;;;;5031793;28;20061;-65
2021/06/18 11:52:34;;;;;;;13.30;2.80;;;;;;;;;;5006367;28;20034;-65
2021/06/18 11:55:00;;;;;;;15.00;3.35;;;;;;;;;;5016485;28;20037;-70
2021/06/18 11:57:27;;;;;;;10.93;2.78;;;;;;;;;;5020895;28;20051;-66
2021/06/18 11:59:54;;;;;;;18.38;3.38;;;;;;;;;;5015587;28;20045;-68
2021/06/18 12:02:22;;;;;;;29.67;3.58;;;;;;;;;;5022527;28;20046;-66
2021/06/18 12:05:00;;;;;;;13.23;3.88;;;;;;;;;;5019990;28;20073;-67
2021/06/18 12:07:29;;;;;;;18.25;3.38;;;;;;;;;;5031534;28;20033;-71
2021/06/18 12:09:55;;;;;;;22.63;3.85;;;;;;;;;;5020444;28;20085;-67
2021/06/18 12:12:21;;;;;;;16.67;3.63;;;;;;;;;;5019289;28;20038;-67
2021/06/18 12:14:54;;;;;;;27.88;4.05;;;;;;;;;;5018036;28;20037;-66
2021/06/18 12:17:20;;;;;;;14.43;3.20;;;;;;;;;;5005431;28;20098;-65
2021/06/18 12:19:48;;;;;;;14.95;3.55;;;;;;;;;;5018985;28;20114;-66
2021/06/18 12:22:18;;;;;;;9.55;3.53;;;;;;;;;;5013418;28;20037;-68
2021/06/18 12:24:48;;;;;;;12.77;3.28;;;;;;;;;;5019306;28;20041;-65
2021/06/18 12:27:15;;;;;;;13.80;3.08;;;;;;;;;;5015830;28;20057;-63
2021/06/18 12:29:45;;;;;;;10.13;3.00;;;;;;;;;;5013392;28;20062;-63
2021/06/18 12:32:13;;;;;;;11.75;3.38;;;;;;;;;;5008183;28;20041;-68
2021/06/18 12:34:59;;;;;;;11.40;3.00;;;;;;;;;;5017770;28;20419;-66
2021/06/18 12:37:26;;;;;;;21.23;3.20;;;;;;;;;;5036293;28;20045;-74
2021/06/18 12:39:54;;;;;;;14.65;2.92;;;;;;;;;;5016223;28;20132;-70
2021/06/18 12:42:23;;;;;;;11.35;2.65;;;;;;;;;;5015300;28;20037;-68
2021/06/18 12:45:03;;;;;;;11.23;2.75;;;;;;;;;;5015126;28;20045;-67
2021/06/18 12:47:31;;;;;;;12.00;2.65;;;;;;;;;;5005880;28;20041;-67
2021/06/18 12:49:56;;;;;;;16.73;3.33;;;;;;;;;;5018250;28;20057;-68
2021/06/18 12:52:23;;;;;;;8.20;2.72;;;;;;;;;;4999055;28;20046;-72
2021/06/18 12:55:01;;;;;;;13.07;3.00;;;;;;;;;;4999912;28;20034;-69
2021/06/18 12:57:28;;;;;;;14.55;2.50;;;;;;;;;;4983849;28;20085;-67
2021/06/18 13:00:20;;;;;;;9.38;2.95;;;;;;;;;;4996469;28;20069;-77
2021/06/18 13:02:45;;;;;;;;;;;;;;;;;;4939372;28;20054;-69
2021/06/18 13:05:12;;;;;;;10.65;2.65;;;;;;;;;;4930327;29;19914;-69
2021/06/18 13:07:38;;;;;;;14.20;3.40;;;;;;;;;;4938830;29;20116;-72
2021/06/18 13:10:04;;;;;;;13.43;3.00;;;;;;;;;;4921386;29;20073;-68
2021/06/18 13:12:30;;;;;;;18.05;3.35;;;;;;;;;;4896467;29;20162;-68
2021/06/18 13:14:59;;;;;;;12.50;3.08;;;;;;;;;;4943215;28;20125;-69
2021/06/18 13:17:26;;;;;;;9.23;2.50;;;;;;;;;;4925997;29;20039;-67
2021/06/18 13:19:53;;;;;;;11.50;3.22;;;;;;;;;;4939481;29;20054;-69
2021/06/18 13:22:39;;;;;;;9.07;3.10;;;;;;;;;;4941583;29;20049;-72
2021/06/18 13:25:11;;;;;;;12.73;3.35;;;;;;;;;;4943609;29;20062;-71
2021/06/18 13:27:46;;;;;;;18.55;3.50;;;;;;;;;;4937836;29;20170;-74
2021/06/18 13:30:13;;;;;;;15.30;3.38;;;;;;;;;;4936156;29;20035;-68
2021/06/18 13:32:47;;;;;;;7.93;2.50;;;;;;;;;;4941720;29;20051;-70
2021/06/18 13:35:13;;;;;;;17.60;3.60;;;;;;;;;;4925834;29;20149;-69
2021/06/18 13:37:40;;;;;;;11.48;3.03;;;;;;;;;;4944453;29;20780;-66
2021/06/18 13:40:05;;;;;;;17.10;2.90;;;;;;;;;;4981856;28;20521;-70
2021/06/18 13:42:31;;;;;;;16.92;3.30;;;;;;;;;;5001207;28;20034;-66
2021/06/18 13:44:57;;;;;;;11.38;3.55;;;;;;;;;;5010246;28;20105;-69
2021/06/18 13:47:23;;;;;;;15.10;3.50;;;;;;;;;;5014000;28;20034;-63
2021/06/18 13:49:58;;;;;;;7.88;2.72;;;;;;;;;;5008732;28;20632;-66
2021/06/18 13:52:24;;;;;;;18.55;2.83;;;;;;;;;;5022521;28;20043;-65
2021/06/18 13:54:49;;;;;;;13.40;2.92;;;;;;;;;;5035387;28;20025;-65
2021/06/18 13:57:17;;;;;;;10.80;2.80;;;;;;;;;;5038283;28;20037;-64
2021/06/18 13:59:44;;;;;;;14.38;2.85;;;;;;;;;;5046876;28;20060;-64
2021/06/18 14:02:11;;;;;;;16.90;2.92;;;;;;;;;;5018699;28;20114;-65
2021/06/18 14:04:37;;;;;;;20.00;2.92;;;;;;;;;;5037192;28;20064;-68
2021/06/18 14:07:02;;;;;;;9.02;2.83;;;;;;;;;;5020951;28;20033;-66
2021/06/18 14:09:28;;;;;;;22.63;3.00;;;;;;;;;;5018618;28;20037;-63
2021/06/18 14:11:54;;;;;;;12.38;2.80;;;;;;;;;;5018903;28;20519;-67
2021/06/18 14:14:20;;;;;;;16.98;3.85;;;;;;;;;;5020418;28;20056;-63
2021/06/18 14:16:51;;;;;;;25.80;3.08;;;;;;;;;;5024228;28;20493;-66
2021/06/18 14:19:17;;;;;;;14.82;2.85;;;;;;;;;;5017277;28;20025;-66
2021/06/18 14:21:43;;;;;;;13.60;3.10;;;;;;;;;;5038403;28;20049;-66
2021/06/18 14:24:09;;;;;;;12.40;3.33;;;;;;;;;;5037907;28;20037;-66
2021/06/18 14:26:34;;;;;;;12.18;3.15;;;;;;;;;;5031342;28;20036;-66
2021/06/18 14:29:00;;;;;;;8.20;3.05;;;;;;;;;;5020308;28;20052;-67
2021/06/18 14:31:26;;;;;;;9.30;2.95;;;;;;;;;;5016556;28;20056;-67
2021/06/18 14:33:54;;;;;;;21.83;3.65;;;;;;;;;;5032689;28;20362;-69
2021/06/18 14:36:21;;;;;;;12.48;3.05;;;;;;;;;;5035919;28;20055;-67